Hovedside
METAR-TAF:

METAR-TAF

Lufthavner :

Florianópolis, Santa Catarina, Brasil

breddegrad: 27-40S, lengdegrad: 048-33W, høyde over havet: 5 m

Gjeldene værobservasjon

Denne rapporten ble laget for 45 minutter siden, klokken 13:00 UTC
Vind 11 kt fra Sør-sørøst
Temperatur 28°C
Luftfuktighet 45%
Trykk 1011 hPa
Sikt 10 km eller mer
ingen skyer under 1500 m og ingen bygeskyer

METAR: SBFL 151300Z 16011KT CAVOK 28/15 Q1011

Tid: 11:45 (13:45 UTC)

Varsel

Denne rapporten ble laget for 4 timer og 45 minutter siden, klokken 09:00 UTC
Varsel gyldig fra 15. klokken 12 UTC til 16. klokken 12 UTC
Vind 10 kt fra Sør-sørvest
Sikt 10 km eller mer
ingen skyer under 1500 m og ingen bygeskyer
Sannsynlighet 40%
fra 15. klokken 18 UTC til 15. klokken 22 UTC
Sikt 10 km eller mer
Få skyer i en høyde av 3000 ft
Blir
fra 16. klokken 00 UTC til 16. klokken 02 UTC
Vind 5 kt fra Vest

TAF: SBFL 150900Z 1512/1612 20010KT CAVOK TX28/1517Z TN19/1608Z PROB40 1518/1522 9999 FEW030 BECMG 1600/1602 26005KT RMK PCX

Værobservasjoner og værvarsel for over 4000 flyplasser (METAR- og TAF-rapporter).

Tilgjengelige stasjoner er representert av de røde og gule prikkene på kartet.

Hold musepekeren over prikken for å se navnet på stasjonen.

Klikk så for å se værobservasjoner og -varsler.

For å forandre kartet kan du klikke på den grønne knappen med svart kryss for å zoome inn, på den grønne knappen med strek for å zoome ut, eller på de grønne pilene for å se tilstøtende kart.


METAR-TAF: